sensor_id;sensor_type;location;lat;lon;timestamp;pressure;altitude;pressure_sealevel;temperature;humidity
32251;BME280;41295;48.518;9.206;2022-10-17T00:00:44;97722.47;;;15.35;76.82
32251;BME280;41295;48.518;9.206;2022-10-17T00:02:47;97720.00;;;15.32;77.24
32251;BME280;41295;48.518;9.206;2022-10-17T00:04:51;97717.22;;;15.35;77.14
32251;BME280;41295;48.518;9.206;2022-10-17T00:06:53;97718.31;;;15.31;76.88
32251;BME280;41295;48.518;9.206;2022-10-17T00:08:56;97725.50;;;15.27;77.04
32251;BME280;41295;48.518;9.206;2022-10-17T00:11:00;97719.16;;;15.31;76.63
32251;BME280;41295;48.518;9.206;2022-10-17T00:13:03;97724.41;;;15.31;76.87
32251;BME280;41295;48.518;9.206;2022-10-17T00:15:07;97726.09;;;15.32;77.43
32251;BME280;41295;48.518;9.206;2022-10-17T00:17:09;97728.97;;;15.27;77.63
32251;BME280;41295;48.518;9.206;2022-10-17T00:19:12;97729.88;;;15.26;77.91
32251;BME280;41295;48.518;9.206;2022-10-17T00:21:17;97725.50;;;15.27;77.86
32251;BME280;41295;48.518;9.206;2022-10-17T00:23:20;97732.59;;;15.25;77.28
32251;BME280;41295;48.518;9.206;2022-10-17T00:25:23;97734.28;;;15.26;77.25
32251;BME280;41295;48.518;9.206;2022-10-17T00:27:26;97736.91;;;15.26;77.25
32251;BME280;41295;48.518;9.206;2022-10-17T00:29:29;97741.41;;;15.24;76.68
32251;BME280;41295;48.518;9.206;2022-10-17T00:31:32;97747.56;;;15.23;76.19
32251;BME280;41295;48.518;9.206;2022-10-17T00:33:36;97745.03;;;15.21;76.08
32251;BME280;41295;48.518;9.206;2022-10-17T00:35:39;97746.25;;;15.14;76.06
32251;BME280;41295;48.518;9.206;2022-10-17T00:37:43;97751.50;;;15.14;76.46
32251;BME280;41295;48.518;9.206;2022-10-17T00:39:46;97758.69;;;15.10;75.71
32251;BME280;41295;48.518;9.206;2022-10-17T00:41:48;97752.66;;;15.08;76.13
32251;BME280;41295;48.518;9.206;2022-10-17T00:43:54;97758.84;;;15.07;75.70
32251;BME280;41295;48.518;9.206;2022-10-17T00:45:57;97762.59;;;15.01;75.49
32251;BME280;41295;48.518;9.206;2022-10-17T00:48:02;97764.44;;;14.99;75.86
32251;BME280;41295;48.518;9.206;2022-10-17T00:50:07;97759.28;;;14.98;75.92
32251;BME280;41295;48.518;9.206;2022-10-17T00:52:12;97757.72;;;14.94;75.47
32251;BME280;41295;48.518;9.206;2022-10-17T00:54:20;97757.78;;;14.92;75.17
32251;BME280;41295;48.518;9.206;2022-10-17T00:56:23;97748.13;;;14.93;74.50
32251;BME280;41295;48.518;9.206;2022-10-17T00:58:26;97752.59;;;14.90;74.63
32251;BME280;41295;48.518;9.206;2022-10-17T01:00:29;97751.81;;;14.88;74.47
32251;BME280;41295;48.518;9.206;2022-10-17T01:02:32;97750.28;;;14.84;73.78
32251;BME280;41295;48.518;9.206;2022-10-17T01:04:35;97752.34;;;14.77;74.68
32251;BME280;41295;48.518;9.206;2022-10-17T01:06:38;97757.06;;;14.69;75.06
32251;BME280;41295;48.518;9.206;2022-10-17T01:08:40;97753.97;;;14.61;76.01
32251;BME280;41295;48.518;9.206;2022-10-17T01:10:54;97756.72;;;14.58;76.44
32251;BME280;41295;48.518;9.206;2022-10-17T01:13:07;97755.88;;;14.57;75.87
32251;BME280;41295;48.518;9.206;2022-10-17T01:15:20;97751.59;;;14.54;75.48
32251;BME280;41295;48.518;9.206;2022-10-17T01:17:32;97764.00;;;14.51;75.43
32251;BME280;41295;48.518;9.206;2022-10-17T01:19:56;97753.75;;;14.46;76.08
32251;BME280;41295;48.518;9.206;2022-10-17T01:22:06;97758.91;;;14.48;76.31
32251;BME280;41295;48.518;9.206;2022-10-17T01:24:35;97758.13;;;14.46;75.84
32251;BME280;41295;48.518;9.206;2022-10-17T01:26:55;97760.72;;;14.47;75.39
32251;BME280;41295;48.518;9.206;2022-10-17T01:29:24;97767.09;;;14.41;74.47
32251;BME280;41295;48.518;9.206;2022-10-17T01:31:36;97767.91;;;14.42;75.00
32251;BME280;41295;48.518;9.206;2022-10-17T01:33:47;97768.06;;;14.39;75.57
32251;BME280;41295;48.518;9.206;2022-10-17T01:35:56;97772.44;;;14.38;75.12
32251;BME280;41295;48.518;9.206;2022-10-17T01:38:09;97773.53;;;14.34;74.88
32251;BME280;41295;48.518;9.206;2022-10-17T01:40:15;97768.28;;;14.34;74.80
32251;BME280;41295;48.518;9.206;2022-10-17T01:42:25;97768.34;;;14.33;74.38
32251;BME280;41295;48.518;9.206;2022-10-17T01:44:32;97766.56;;;14.33;74.31
32251;BME280;41295;48.518;9.206;2022-10-17T01:46:42;97763.94;;;14.33;73.67
32251;BME280;41295;48.518;9.206;2022-10-17T01:48:46;97755.31;;;14.31;73.42
32251;BME280;41295;48.518;9.206;2022-10-17T01:50:51;97755.09;;;14.36;73.01
32251;BME280;41295;48.518;9.206;2022-10-17T01:52:59;97753.16;;;14.20;73.75
32251;BME280;41295;48.518;9.206;2022-10-17T01:55:07;97750.06;;;14.31;72.92
32251;BME280;41295;48.518;9.206;2022-10-17T01:57:18;97756.84;;;14.16;73.57
32251;BME280;41295;48.518;9.206;2022-10-17T01:59:24;97745.69;;;14.11;75.04
32251;BME280;41295;48.518;9.206;2022-10-17T02:01:29;97747.47;;;14.10;75.37
32251;BME280;41295;48.518;9.206;2022-10-17T02:03:34;97743.47;;;14.01;75.42
32251;BME280;41295;48.518;9.206;2022-10-17T02:05:39;97743.63;;;13.98;76.79
32251;BME280;41295;48.518;9.206;2022-10-17T02:07:42;97742.13;;;13.92;76.39
32251;BME280;41295;48.518;9.206;2022-10-17T02:09:45;97749.25;;;13.89;76.15
32251;BME280;41295;48.518;9.206;2022-10-17T02:12:09;97737.09;;;13.88;76.16
32251;BME280;41295;48.518;9.206;2022-10-17T02:14:24;97737.28;;;13.83;76.04
32251;BME280;41295;48.518;9.206;2022-10-17T02:16:34;97746.00;;;13.83;75.83
32251;BME280;41295;48.518;9.206;2022-10-17T02:19:04;97738.06;;;13.85;76.35
32251;BME280;41295;48.518;9.206;2022-10-17T02:21:14;97740.28;;;13.94;76.17
32251;BME280;41295;48.518;9.206;2022-10-17T02:23:23;97739.63;;;13.89;75.70
32251;BME280;41295;48.518;9.206;2022-10-17T02:25:34;97734.41;;;13.89;75.23
32251;BME280;41295;48.518;9.206;2022-10-17T02:27:43;97737.94;;;13.88;75.19
32251;BME280;41295;48.518;9.206;2022-10-17T02:29:55;97737.09;;;13.88;74.78
32251;BME280;41295;48.518;9.206;2022-10-17T02:32:01;97741.31;;;13.90;75.40
32251;BME280;41295;48.518;9.206;2022-10-17T02:34:08;97744.75;;;13.92;75.43
32251;BME280;41295;48.518;9.206;2022-10-17T02:36:18;97753.25;;;13.98;74.90
32251;BME280;41295;48.518;9.206;2022-10-17T02:38:22;97758.44;;;13.99;74.39
32251;BME280;41295;48.518;9.206;2022-10-17T02:40:28;97759.34;;;13.98;74.09
32251;BME280;41295;48.518;9.206;2022-10-17T02:42:31;97762.03;;;13.97;74.22
32251;BME280;41295;48.518;9.206;2022-10-17T02:44:37;97773.25;;;14.00;74.45
32251;BME280;41295;48.518;9.206;2022-10-17T02:46:41;97767.94;;;14.02;75.05
32251;BME280;41295;48.518;9.206;2022-10-17T02:48:48;97766.34;;;13.98;75.31
32251;BME280;41295;48.518;9.206;2022-10-17T02:50:57;97766.56;;;13.93;75.27
32251;BME280;41295;48.518;9.206;2022-10-17T02:53:08;97769.19;;;13.93;75.06
32251;BME280;41295;48.518;9.206;2022-10-17T02:55:15;97764.84;;;13.92;75.13
32251;BME280;41295;48.518;9.206;2022-10-17T02:57:24;97768.53;;;13.88;74.62
32251;BME280;41295;48.518;9.206;2022-10-17T02:59:29;97774.97;;;13.80;73.92
32251;BME280;41295;48.518;9.206;2022-10-17T03:01:38;97777.00;;;13.74;73.56
32251;BME280;41295;48.518;9.206;2022-10-17T03:03:40;97771.88;;;13.70;73.71
32251;BME280;41295;48.518;9.206;2022-10-17T03:05:43;97771.03;;;13.70;73.60
32251;BME280;41295;48.518;9.206;2022-10-17T03:07:47;97770.25;;;13.68;73.17
32251;BME280;41295;48.518;9.206;2022-10-17T03:09:50;97776.34;;;13.68;73.19
32251;BME280;41295;48.518;9.206;2022-10-17T03:11:52;97779.06;;;13.65;73.23
32251;BME280;41295;48.518;9.206;2022-10-17T03:13:55;97780.06;;;13.63;73.51
32251;BME280;41295;48.518;9.206;2022-10-17T03:15:58;97779.53;;;13.54;73.36
32251;BME280;41295;48.518;9.206;2022-10-17T03:18:00;97783.19;;;13.50;73.46
32251;BME280;41295;48.518;9.206;2022-10-17T03:20:04;97787.56;;;13.50;74.30
32251;BME280;41295;48.518;9.206;2022-10-17T03:22:07;97786.88;;;13.44;73.33
32251;BME280;41295;48.518;9.206;2022-10-17T03:24:11;97780.00;;;13.42;74.02
32251;BME280;41295;48.518;9.206;2022-10-17T03:26:14;97790.38;;;13.45;74.74
32251;BME280;41295;48.518;9.206;2022-10-17T03:28:16;97780.84;;;13.42;74.60
32251;BME280;41295;48.518;9.206;2022-10-17T03:30:19;97787.03;;;13.41;74.39
32251;BME280;41295;48.518;9.206;2022-10-17T03:32:22;97790.94;;;13.31;74.02
32251;BME280;41295;48.518;9.206;2022-10-17T03:34:24;97795.31;;;13.30;75.34
32251;BME280;41295;48.518;9.206;2022-10-17T03:36:27;97788.50;;;13.26;75.23
32251;BME280;41295;48.518;9.206;2022-10-17T03:38:30;97796.34;;;13.26;75.14
32251;BME280;41295;48.518;9.206;2022-10-17T03:40:34;97799.88;;;13.25;75.72
32251;BME280;41295;48.518;9.206;2022-10-17T03:42:36;97804.94;;;13.30;75.29
32251;BME280;41295;48.518;9.206;2022-10-17T03:44:39;97806.19;;;13.42;73.58
32251;BME280;41295;48.518;9.206;2022-10-17T03:46:42;97805.06;;;13.27;75.06
32251;BME280;41295;48.518;9.206;2022-10-17T03:48:44;97803.53;;;13.21;75.94
32251;BME280;41295;48.518;9.206;2022-10-17T03:50:47;97804.47;;;13.20;76.28
32251;BME280;41295;48.518;9.206;2022-10-17T03:52:50;97801.97;;;13.17;76.34
32251;BME280;41295;48.518;9.206;2022-10-17T03:54:53;97804.63;;;13.15;76.36
32251;BME280;41295;48.518;9.206;2022-10-17T03:56:57;97814.34;;;13.13;75.78
32251;BME280;41295;48.518;9.206;2022-10-17T03:58:59;97809.25;;;13.08;75.77
32251;BME280;41295;48.518;9.206;2022-10-17T04:01:03;97808.41;;;13.08;76.05
32251;BME280;41295;48.518;9.206;2022-10-17T04:03:05;97805.75;;;13.09;76.37
32251;BME280;41295;48.518;9.206;2022-10-17T04:05:08;97806.56;;;13.10;76.05
32251;BME280;41295;48.518;9.206;2022-10-17T04:07:11;97804.88;;;13.09;75.86
32251;BME280;41295;48.518;9.206;2022-10-17T04:09:13;97812.81;;;13.07;75.51
32251;BME280;41295;48.518;9.206;2022-10-17T04:11:18;97806.72;;;13.07;75.75
32251;BME280;41295;48.518;9.206;2022-10-17T04:13:22;97803.16;;;13.08;75.90
32251;BME280;41295;48.518;9.206;2022-10-17T04:15:25;97810.13;;;13.09;75.92
32251;BME280;41295;48.518;9.206;2022-10-17T04:17:29;97811.81;;;13.10;76.12
32251;BME280;41295;48.518;9.206;2022-10-17T04:19:38;97810.13;;;13.09;75.55
32251;BME280;41295;48.518;9.206;2022-10-17T04:21:41;97812.66;;;13.10;75.06
32251;BME280;41295;48.518;9.206;2022-10-17T04:23:45;97818.66;;;13.14;74.85
32251;BME280;41295;48.518;9.206;2022-10-17T04:25:48;97816.88;;;13.15;74.61
32251;BME280;41295;48.518;9.206;2022-10-17T04:27:50;97817.03;;;13.10;75.11
32251;BME280;41295;48.518;9.206;2022-10-17T04:29:54;97823.09;;;13.12;75.72
32251;BME280;41295;48.518;9.206;2022-10-17T04:31:57;97825.69;;;13.12;76.08
32251;BME280;41295;48.518;9.206;2022-10-17T04:33:59;97827.47;;;13.11;76.48
32251;BME280;41295;48.518;9.206;2022-10-17T04:36:04;97825.69;;;13.12;77.33
32251;BME280;41295;48.518;9.206;2022-10-17T04:38:07;97827.44;;;13.13;76.98
32251;BME280;41295;48.518;9.206;2022-10-17T04:40:10;97830.13;;;13.10;75.67
32251;BME280;41295;48.518;9.206;2022-10-17T04:42:13;97820.59;;;13.09;75.48
32251;BME280;41295;48.518;9.206;2022-10-17T04:44:15;97824.16;;;13.06;75.39
32251;BME280;41295;48.518;9.206;2022-10-17T04:46:19;97831.94;;;13.09;75.16
32251;BME280;41295;48.518;9.206;2022-10-17T04:48:22;97831.06;;;13.09;75.12
32251;BME280;41295;48.518;9.206;2022-10-17T04:50:24;97833.63;;;13.10;75.32
32251;BME280;41295;48.518;9.206;2022-10-17T04:52:27;97834.53;;;13.09;74.74
32251;BME280;41295;48.518;9.206;2022-10-17T04:54:30;97831.13;;;13.07;74.12
32251;BME280;41295;48.518;9.206;2022-10-17T04:56:33;97839.09;;;13.04;74.40
32251;BME280;41295;48.518;9.206;2022-10-17T04:58:36;97833.91;;;13.03;74.54
32251;BME280;41295;48.518;9.206;2022-10-17T05:00:39;97836.59;;;13.01;74.54
32251;BME280;41295;48.518;9.206;2022-10-17T05:02:43;97838.38;;;13.01;74.47
32251;BME280;41295;48.518;9.206;2022-10-17T05:04:46;97840.19;;;12.98;74.21
32251;BME280;41295;48.518;9.206;2022-10-17T05:06:48;97837.66;;;12.95;74.09
32251;BME280;41295;48.518;9.206;2022-10-17T05:08:51;97832.44;;;12.95;74.16
32251;BME280;41295;48.518;9.206;2022-10-17T05:10:53;97836.84;;;12.95;74.24
32251;BME280;41295;48.518;9.206;2022-10-17T05:12:56;97831.75;;;12.90;73.98
32251;BME280;41295;48.518;9.206;2022-10-17T05:14:59;97825.78;;;12.86;73.67
32251;BME280;41295;48.518;9.206;2022-10-17T05:17:01;97825.06;;;12.83;74.60
32251;BME280;41295;48.518;9.206;2022-10-17T05:19:23;97825.13;;;12.81;74.37
32251;BME280;41295;48.518;9.206;2022-10-17T05:21:28;97834.75;;;12.81;75.09
32251;BME280;41295;48.518;9.206;2022-10-17T05:23:36;97835.53;;;12.83;75.14
32251;BME280;41295;48.518;9.206;2022-10-17T05:25:39;97835.59;;;12.81;75.03
32251;BME280;41295;48.518;9.206;2022-10-17T05:27:41;97831.81;;;12.89;73.62
32251;BME280;41295;48.518;9.206;2022-10-17T05:29:44;97830.88;;;12.91;74.00
32251;BME280;41295;48.518;9.206;2022-10-17T05:31:46;97841.47;;;12.88;73.77
32251;BME280;41295;48.518;9.206;2022-10-17T05:33:49;97839.84;;;12.84;74.78
32251;BME280;41295;48.518;9.206;2022-10-17T05:35:53;97839.19;;;12.79;74.83
32251;BME280;41295;48.518;9.206;2022-10-17T05:37:57;97840.03;;;12.79;75.06
32251;BME280;41295;48.518;9.206;2022-10-17T05:40:00;97837.47;;;12.78;75.33
32251;BME280;41295;48.518;9.206;2022-10-17T05:42:03;97841.91;;;12.75;75.18
32251;BME280;41295;48.518;9.206;2022-10-17T05:44:05;97845.31;;;12.78;75.51
32251;BME280;41295;48.518;9.206;2022-10-17T05:46:08;97848.72;;;12.80;75.63
32251;BME280;41295;48.518;9.206;2022-10-17T05:48:11;97844.28;;;12.82;75.40
32251;BME280;41295;48.518;9.206;2022-10-17T05:50:13;97840.81;;;12.81;75.09
32251;BME280;41295;48.518;9.206;2022-10-17T05:52:17;97832.97;;;12.81;75.48
32251;BME280;41295;48.518;9.206;2022-10-17T05:54:20;97843.50;;;12.80;75.75
32251;BME280;41295;48.518;9.206;2022-10-17T05:56:23;97847.25;;;12.72;75.86
32251;BME280;41295;48.518;9.206;2022-10-17T05:58:26;97843.28;;;12.86;74.86
32251;BME280;41295;48.518;9.206;2022-10-17T06:00:49;97845.31;;;12.78;76.42
32251;BME280;41295;48.518;9.206;2022-10-17T06:02:51;97851.69;;;12.70;76.81
32251;BME280;41295;48.518;9.206;2022-10-17T06:04:54;97850.78;;;12.71;77.22
32251;BME280;41295;48.518;9.206;2022-10-17T06:06:57;97848.97;;;12.73;77.97
32251;BME280;41295;48.518;9.206;2022-10-17T06:09:00;97850.72;;;12.73;77.36
32251;BME280;41295;48.518;9.206;2022-10-17T06:11:03;97868.09;;;12.75;77.44
32251;BME280;41295;48.518;9.206;2022-10-17T06:13:10;97855.78;;;12.78;77.16
32251;BME280;41295;48.518;9.206;2022-10-17T06:15:13;97856.56;;;12.80;77.11
32251;BME280;41295;48.518;9.206;2022-10-17T06:17:15;97857.50;;;12.79;76.74
32251;BME280;41295;48.518;9.206;2022-10-17T06:19:18;97865.28;;;12.80;76.55
32251;BME280;41295;48.518;9.206;2022-10-17T06:21:22;97868.72;;;12.82;76.60
32251;BME280;41295;48.518;9.206;2022-10-17T06:23:25;97866.97;;;12.81;76.76
32251;BME280;41295;48.518;9.206;2022-10-17T06:25:31;97860.97;;;12.79;76.92
32251;BME280;41295;48.518;9.206;2022-10-17T06:27:34;97861.81;;;12.80;77.27
32251;BME280;41295;48.518;9.206;2022-10-17T06:29:36;97864.44;;;12.80;76.74
32251;BME280;41295;48.518;9.206;2022-10-17T06:31:39;97869.59;;;12.81;76.47
32251;BME280;41295;48.518;9.206;2022-10-17T06:33:42;97874.69;;;12.86;76.57
32251;BME280;41295;48.518;9.206;2022-10-17T06:35:50;97882.28;;;12.92;76.39
32251;BME280;41295;48.518;9.206;2022-10-17T06:37:52;97876.91;;;12.97;76.82
32251;BME280;41295;48.518;9.206;2022-10-17T06:39:55;97868.88;;;13.02;77.46
32251;BME280;41295;48.518;9.206;2022-10-17T06:41:59;97882.06;;;12.98;77.66
32251;BME280;41295;48.518;9.206;2022-10-17T06:44:02;97882.97;;;12.97;77.56
32251;BME280;41295;48.518;9.206;2022-10-17T06:46:12;97892.69;;;12.94;77.41
32251;BME280;41295;48.518;9.206;2022-10-17T06:48:14;97894.38;;;12.96;78.09
32251;BME280;41295;48.518;9.206;2022-10-17T06:50:17;97889.00;;;12.99;78.46
32251;BME280;41295;48.518;9.206;2022-10-17T06:52:20;97897.59;;;13.03;78.53
32251;BME280;41295;48.518;9.206;2022-10-17T06:54:22;97898.47;;;13.04;78.74
32251;BME280;41295;48.518;9.206;2022-10-17T06:56:25;97907.00;;;13.09;79.08
32251;BME280;41295;48.518;9.206;2022-10-17T06:58:30;97914.91;;;13.07;78.50
32251;BME280;41295;48.518;9.206;2022-10-17T07:00:33;97915.41;;;13.17;78.19
32251;BME280;41295;48.518;9.206;2022-10-17T07:02:36;97916.19;;;13.19;78.55
32251;BME280;41295;48.518;9.206;2022-10-17T07:04:39;97927.81;;;13.12;77.76
32251;BME280;41295;48.518;9.206;2022-10-17T07:06:41;97927.22;;;13.28;76.78
32251;BME280;41295;48.518;9.206;2022-10-17T07:08:44;97925.13;;;13.38;76.79
32251;BME280;41295;48.518;9.206;2022-10-17T07:10:48;97936.50;;;13.37;77.43
32251;BME280;41295;48.518;9.206;2022-10-17T07:12:51;97937.47;;;13.34;77.83
32251;BME280;41295;48.518;9.206;2022-10-17T07:14:55;97937.16;;;13.42;76.95
32251;BME280;41295;48.518;9.206;2022-10-17T07:16:58;97939.50;;;13.50;76.93
32251;BME280;41295;48.518;9.206;2022-10-17T07:19:00;97944.00;;;13.46;77.75
32251;BME280;41295;48.518;9.206;2022-10-17T07:21:03;97950.91;;;13.49;76.66
32251;BME280;41295;48.518;9.206;2022-10-17T07:23:06;97946.47;;;13.51;76.99
32251;BME280;41295;48.518;9.206;2022-10-17T07:25:09;97942.06;;;13.51;77.15
32251;BME280;41295;48.518;9.206;2022-10-17T07:27:11;97947.84;;;13.61;77.50
32251;BME280;41295;48.518;9.206;2022-10-17T07:29:14;97951.41;;;13.58;77.94
32251;BME280;41295;48.518;9.206;2022-10-17T07:31:19;97958.59;;;13.53;78.06
32251;BME280;41295;48.518;9.206;2022-10-17T07:33:22;97955.91;;;13.55;78.89
32251;BME280;41295;48.518;9.206;2022-10-17T07:35:25;97957.69;;;13.77;77.82
32251;BME280;41295;48.518;9.206;2022-10-17T07:37:28;97958.84;;;13.69;78.22
32251;BME280;41295;48.518;9.206;2022-10-17T07:39:31;97958.63;;;13.76;77.95
32251;BME280;41295;48.518;9.206;2022-10-17T07:41:35;97965.69;;;13.74;78.29
32251;BME280;41295;48.518;9.206;2022-10-17T07:43:38;97967.25;;;13.78;78.34
32251;BME280;41295;48.518;9.206;2022-10-17T07:45:43;97973.88;;;13.88;76.88
32251;BME280;41295;48.518;9.206;2022-10-17T07:47:47;97975.13;;;14.00;77.16
32251;BME280;41295;48.518;9.206;2022-10-17T07:49:49;97974.28;;;14.00;77.02
32251;BME280;41295;48.518;9.206;2022-10-17T07:51:52;97980.53;;;13.95;77.91
32251;BME280;41295;48.518;9.206;2022-10-17T07:53:54;97976.00;;;14.01;76.87
32251;BME280;41295;48.518;9.206;2022-10-17T07:55:57;97974.41;;;13.97;77.65
32251;BME280;41295;48.518;9.206;2022-10-17T07:58:00;97965.53;;;13.99;78.39
32251;BME280;41295;48.518;9.206;2022-10-17T08:00:03;97971.34;;;14.07;77.34
32251;BME280;41295;48.518;9.206;2022-10-17T08:02:05;97970.50;;;14.07;76.92
32251;BME280;41295;48.518;9.206;2022-10-17T08:04:10;97971.94;;;14.14;76.75
32251;BME280;41295;48.518;9.206;2022-10-17T08:06:13;97972.53;;;14.21;76.64
32251;BME280;41295;48.518;9.206;2022-10-17T08:08:16;97977.59;;;14.26;76.09
32251;BME280;41295;48.518;9.206;2022-10-17T08:10:18;97974.78;;;14.30;76.15
32251;BME280;41295;48.518;9.206;2022-10-17T08:12:22;97966.72;;;14.35;76.38
32251;BME280;41295;48.518;9.206;2022-10-17T08:14:26;97977.06;;;14.38;76.68
32251;BME280;41295;48.518;9.206;2022-10-17T08:16:28;97973.53;;;14.39;77.10
32251;BME280;41295;48.518;9.206;2022-10-17T08:18:31;97968.88;;;14.46;77.27
32251;BME280;41295;48.518;9.206;2022-10-17T08:20:35;97975.78;;;14.49;76.81
32251;BME280;41295;48.518;9.206;2022-10-17T08:22:38;97964.22;;;14.53;76.88
32251;BME280;41295;48.518;9.206;2022-10-17T08:24:40;97959.69;;;14.57;77.21
32251;BME280;41295;48.518;9.206;2022-10-17T08:26:44;97969.09;;;14.62;76.95
32251;BME280;41295;48.518;9.206;2022-10-17T08:28:52;97972.38;;;14.67;77.02
32251;BME280;41295;48.518;9.206;2022-10-17T08:31:01;97970.47;;;14.71;76.67
32251;BME280;41295;48.518;9.206;2022-10-17T08:33:03;97972.03;;;14.75;76.88
32251;BME280;41295;48.518;9.206;2022-10-17T08:35:07;97966.66;;;14.78;77.07
32251;BME280;41295;48.518;9.206;2022-10-17T08:37:11;97973.28;;;14.87;76.59
32251;BME280;41295;48.518;9.206;2022-10-17T08:39:14;97972.44;;;14.87;76.45
32251;BME280;41295;48.518;9.206;2022-10-17T08:41:26;97977.06;;;15.01;75.69
32251;BME280;41295;48.518;9.206;2022-10-17T08:43:44;97977.28;;;14.96;75.08
32251;BME280;41295;48.518;9.206;2022-10-17T08:45:52;97975.31;;;15.01;74.95
32251;BME280;41295;48.518;9.206;2022-10-17T08:47:58;97977.44;;;15.12;74.02
32251;BME280;41295;48.518;9.206;2022-10-17T08:50:02;97979.81;;;15.19;74.43
32251;BME280;41295;48.518;9.206;2022-10-17T08:52:13;97985.91;;;15.19;74.77
32251;BME280;41295;48.518;9.206;2022-10-17T08:54:19;97983.13;;;15.22;75.24
32251;BME280;41295;48.518;9.206;2022-10-17T08:56:25;97978.75;;;15.23;75.58
32251;BME280;41295;48.518;9.206;2022-10-17T08:58:48;97983.84;;;15.26;75.77
32251;BME280;41295;48.518;9.206;2022-10-17T09:00:59;97977.69;;;15.27;75.97
32251;BME280;41295;48.518;9.206;2022-10-17T09:03:13;97980.16;;;15.30;76.18
32251;BME280;41295;48.518;9.206;2022-10-17T09:05:32;97981.75;;;15.34;76.27
32251;BME280;41295;48.518;9.206;2022-10-17T09:07:47;97982.44;;;15.38;76.52
32251;BME280;41295;48.518;9.206;2022-10-17T09:09:57;97977.84;;;15.43;76.81
32251;BME280;41295;48.518;9.206;2022-10-17T09:12:17;97981.03;;;15.50;76.38
32251;BME280;41295;48.518;9.206;2022-10-17T09:17:07;97981.50;;;15.58;75.66
32251;BME280;41295;48.518;9.206;2022-10-17T09:19:18;97983.94;;;15.63;75.65
32251;BME280;41295;48.518;9.206;2022-10-17T09:21:25;97983.34;;;15.75;74.86
32251;BME280;41295;48.518;9.206;2022-10-17T09:23:44;97989.94;;;15.84;73.47
32251;BME280;41295;48.518;9.206;2022-10-17T09:25:52;97974.03;;;15.87;73.29
32251;BME280;41295;48.518;9.206;2022-10-17T09:28:02;97978.06;;;15.95;73.26
32251;BME280;41295;48.518;9.206;2022-10-17T09:30:26;97974.41;;;15.97;73.32
32251;BME280;41295;48.518;9.206;2022-10-17T09:32:47;97981.34;;;16.00;73.15
32251;BME280;41295;48.518;9.206;2022-10-17T09:34:50;97969.88;;;16.01;73.56
32251;BME280;41295;48.518;9.206;2022-10-17T09:36:53;97978.56;;;16.03;74.12
32251;BME280;41295;48.518;9.206;2022-10-17T09:39:00;97970.66;;;16.03;74.43
32251;BME280;41295;48.518;9.206;2022-10-17T09:41:08;97972.38;;;16.04;74.85
32251;BME280;41295;48.518;9.206;2022-10-17T09:43:34;97977.19;;;16.14;73.70
32251;BME280;41295;48.518;9.206;2022-10-17T09:45:41;97978.66;;;16.19;73.02
32251;BME280;41295;48.518;9.206;2022-10-17T09:47:54;97977.66;;;16.22;72.87
32251;BME280;41295;48.518;9.206;2022-10-17T09:50:02;97968.84;;;16.23;73.11
32251;BME280;41295;48.518;9.206;2022-10-17T09:52:10;97974.81;;;16.27;73.20
32251;BME280;41295;48.518;9.206;2022-10-17T09:54:19;97973.81;;;16.29;73.52
32251;BME280;41295;48.518;9.206;2022-10-17T09:56:24;97968.53;;;16.29;73.90
32251;BME280;41295;48.518;9.206;2022-10-17T09:58:39;97964.88;;;16.32;74.34
32251;BME280;41295;48.518;9.206;2022-10-17T10:00:44;97969.25;;;16.33;74.88
32251;BME280;41295;48.518;9.206;2022-10-17T10:02:47;97968.75;;;16.42;74.74
32251;BME280;41295;48.518;9.206;2022-10-17T10:04:55;97958.00;;;16.47;75.27
32251;BME280;41295;48.518;9.206;2022-10-17T10:07:10;97962.72;;;16.58;73.84
32251;BME280;41295;48.518;9.206;2022-10-17T10:09:21;97964.19;;;16.64;72.92
32251;BME280;41295;48.518;9.206;2022-10-17T10:11:44;97953.50;;;16.67;72.83
32251;BME280;41295;48.518;9.206;2022-10-17T10:13:47;97959.53;;;16.69;72.70
32251;BME280;41295;48.518;9.206;2022-10-17T10:15:50;97954.81;;;16.76;72.41
32251;BME280;41295;48.518;9.206;2022-10-17T10:17:53;97963.41;;;16.79;72.15
32251;BME280;41295;48.518;9.206;2022-10-17T10:19:55;97957.88;;;16.84;71.84
32251;BME280;41295;48.518;9.206;2022-10-17T10:22:00;97966.56;;;16.86;71.31
32251;BME280;41295;48.518;9.206;2022-10-17T10:24:05;97964.69;;;16.88;71.54
32251;BME280;41295;48.518;9.206;2022-10-17T10:26:25;97966.09;;;16.95;71.02
32251;BME280;41295;48.518;9.206;2022-10-17T10:28:30;97964.09;;;16.99;71.62
32251;BME280;41295;48.518;9.206;2022-10-17T10:30:33;97966.44;;;17.05;72.49
32251;BME280;41295;48.518;9.206;2022-10-17T10:32:44;97961.72;;;17.12;73.18
32251;BME280;41295;48.518;9.206;2022-10-17T10:34:51;97964.13;;;17.17;73.36
32251;BME280;41295;48.518;9.206;2022-10-17T10:36:58;97969.81;;;17.25;73.59
32251;BME280;41295;48.518;9.206;2022-10-17T10:39:02;97961.56;;;17.31;73.84
32251;BME280;41295;48.518;9.206;2022-10-17T10:41:08;97974.41;;;17.38;73.87
32251;BME280;41295;48.518;9.206;2022-10-17T10:43:21;97975.03;;;17.43;73.68
32251;BME280;41295;48.518;9.206;2022-10-17T10:45:26;97977.31;;;17.49;73.52
32251;BME280;41295;48.518;9.206;2022-10-17T10:47:49;97975.19;;;17.56;73.76
32251;BME280;41295;48.518;9.206;2022-10-17T10:50:15;97972.31;;;17.61;73.39
32251;BME280;41295;48.518;9.206;2022-10-17T10:52:39;97966.69;;;17.67;73.33
32251;BME280;41295;48.518;9.206;2022-10-17T10:54:50;97969.06;;;17.72;72.87
32251;BME280;41295;48.518;9.206;2022-10-17T10:56:57;97975.78;;;17.77;72.85
32251;BME280;41295;48.518;9.206;2022-10-17T10:59:07;97968.47;;;17.83;73.12
32251;BME280;41295;48.518;9.206;2022-10-17T11:01:18;97973.47;;;17.87;72.96
32251;BME280;41295;48.518;9.206;2022-10-17T11:03:28;97969.81;;;17.90;72.97
32251;BME280;41295;48.518;9.206;2022-10-17T11:05:38;97964.47;;;17.91;72.52
32251;BME280;41295;48.518;9.206;2022-10-17T11:07:46;97968.69;;;17.94;72.46
32251;BME280;41295;48.518;9.206;2022-10-17T11:09:56;97970.41;;;17.95;72.36